sensor_id;sensor_type;location;lat;lon;timestamp;temperature;humidity
65582;DHT22;52231;40.090;18.348;2023-04-26T00:00:00;14.60;80.80
65582;DHT22;52231;40.090;18.348;2023-04-26T00:02:31;14.60;80.90
65582;DHT22;52231;40.090;18.348;2023-04-26T00:05:01;14.60;81.00
65582;DHT22;52231;40.090;18.348;2023-04-26T00:07:32;14.50;81.10
65582;DHT22;52231;40.090;18.348;2023-04-26T00:10:00;14.50;81.20
65582;DHT22;52231;40.090;18.348;2023-04-26T00:12:28;14.40;81.20
65582;DHT22;52231;40.090;18.348;2023-04-26T00:14:57;14.40;81.40
65582;DHT22;52231;40.090;18.348;2023-04-26T00:17:25;14.40;81.50
65582;DHT22;52231;40.090;18.348;2023-04-26T00:19:53;14.40;81.60
65582;DHT22;52231;40.090;18.348;2023-04-26T00:22:21;14.30;81.70
65582;DHT22;52231;40.090;18.348;2023-04-26T00:24:50;14.40;81.80
65582;DHT22;52231;40.090;18.348;2023-04-26T00:27:18;14.30;81.90
65582;DHT22;52231;40.090;18.348;2023-04-26T00:29:46;14.30;81.90
65582;DHT22;52231;40.090;18.348;2023-04-26T00:32:14;14.20;82.00
65582;DHT22;52231;40.090;18.348;2023-04-26T00:34:43;14.20;82.30
65582;DHT22;52231;40.090;18.348;2023-04-26T00:37:12;14.10;82.50
65582;DHT22;52231;40.090;18.348;2023-04-26T00:39:40;14.00;82.80
65582;DHT22;52231;40.090;18.348;2023-04-26T00:42:08;14.00;83.00
65582;DHT22;52231;40.090;18.348;2023-04-26T00:44:36;13.90;83.10
65582;DHT22;52231;40.090;18.348;2023-04-26T00:47:07;13.90;83.30
65582;DHT22;52231;40.090;18.348;2023-04-26T00:49:35;13.90;83.40
65582;DHT22;52231;40.090;18.348;2023-04-26T00:52:04;13.90;83.50
65582;DHT22;52231;40.090;18.348;2023-04-26T00:54:32;13.90;83.50
65582;DHT22;52231;40.090;18.348;2023-04-26T00:57:01;13.90;83.50
65582;DHT22;52231;40.090;18.348;2023-04-26T00:59:29;13.90;83.50
65582;DHT22;52231;40.090;18.348;2023-04-26T01:01:58;13.80;83.40
65582;DHT22;52231;40.090;18.348;2023-04-26T01:04:26;13.80;83.10
65582;DHT22;52231;40.090;18.348;2023-04-26T01:06:58;13.90;82.60
65582;DHT22;52231;40.090;18.348;2023-04-26T01:09:27;13.90;81.90
65582;DHT22;52231;40.090;18.348;2023-04-26T01:12:02;14.00;81.80
65582;DHT22;52231;40.090;18.348;2023-04-26T01:14:31;14.00;81.70
65582;DHT22;52231;40.090;18.348;2023-04-26T01:17:01;13.90;81.60
65582;DHT22;52231;40.090;18.348;2023-04-26T01:19:29;13.90;81.20
65582;DHT22;52231;40.090;18.348;2023-04-26T01:21:59;13.90;81.10
65582;DHT22;52231;40.090;18.348;2023-04-26T01:24:27;13.90;81.10
65582;DHT22;52231;40.090;18.348;2023-04-26T01:26:55;13.90;81.30
65582;DHT22;52231;40.090;18.348;2023-04-26T01:29:24;13.80;81.20
65582;DHT22;52231;40.090;18.348;2023-04-26T01:31:53;13.80;81.20
65582;DHT22;52231;40.090;18.348;2023-04-26T01:34:22;13.80;81.30
65582;DHT22;52231;40.090;18.348;2023-04-26T01:36:50;13.60;81.40
65582;DHT22;52231;40.090;18.348;2023-04-26T01:39:20;13.60;81.50
65582;DHT22;52231;40.090;18.348;2023-04-26T01:41:49;13.50;81.60
65582;DHT22;52231;40.090;18.348;2023-04-26T01:44:18;13.50;81.80
65582;DHT22;52231;40.090;18.348;2023-04-26T01:46:46;13.40;82.10
65582;DHT22;52231;40.090;18.348;2023-04-26T01:49:14;13.30;82.20
65582;DHT22;52231;40.090;18.348;2023-04-26T01:51:42;13.30;82.50
65582;DHT22;52231;40.090;18.348;2023-04-26T01:54:10;13.30;82.60
65582;DHT22;52231;40.090;18.348;2023-04-26T01:56:38;13.20;82.70
65582;DHT22;52231;40.090;18.348;2023-04-26T01:59:06;13.20;82.90
65582;DHT22;52231;40.090;18.348;2023-04-26T02:01:35;13.10;82.90
65582;DHT22;52231;40.090;18.348;2023-04-26T02:04:03;13.10;83.00
65582;DHT22;52231;40.090;18.348;2023-04-26T02:06:33;13.10;83.10
65582;DHT22;52231;40.090;18.348;2023-04-26T02:09:01;13.10;83.10
65582;DHT22;52231;40.090;18.348;2023-04-26T02:11:30;13.20;83.10
65582;DHT22;52231;40.090;18.348;2023-04-26T02:13:58;13.30;83.00
65582;DHT22;52231;40.090;18.348;2023-04-26T02:16:26;13.30;82.70
65582;DHT22;52231;40.090;18.348;2023-04-26T02:18:54;13.30;82.50
65582;DHT22;52231;40.090;18.348;2023-04-26T02:21:23;13.40;82.50
65582;DHT22;52231;40.090;18.348;2023-04-26T02:23:51;13.50;82.40
65582;DHT22;52231;40.090;18.348;2023-04-26T02:26:19;13.60;82.20
65582;DHT22;52231;40.090;18.348;2023-04-26T02:28:48;13.60;82.20
65582;DHT22;52231;40.090;18.348;2023-04-26T02:31:16;13.60;82.20
65582;DHT22;52231;40.090;18.348;2023-04-26T02:33:44;13.70;82.20
65582;DHT22;52231;40.090;18.348;2023-04-26T02:36:13;13.70;82.00
65582;DHT22;52231;40.090;18.348;2023-04-26T02:38:41;13.70;82.10
65582;DHT22;52231;40.090;18.348;2023-04-26T02:41:09;13.80;82.10
65582;DHT22;52231;40.090;18.348;2023-04-26T02:43:38;13.70;82.00
65582;DHT22;52231;40.090;18.348;2023-04-26T02:46:07;13.70;82.00
65582;DHT22;52231;40.090;18.348;2023-04-26T02:48:35;13.70;82.10
65582;DHT22;52231;40.090;18.348;2023-04-26T02:51:03;13.60;82.20
65582;DHT22;52231;40.090;18.348;2023-04-26T02:53:32;13.60;82.40
65582;DHT22;52231;40.090;18.348;2023-04-26T02:56:01;13.40;82.50
65582;DHT22;52231;40.090;18.348;2023-04-26T02:58:29;13.30;82.70
65582;DHT22;52231;40.090;18.348;2023-04-26T03:00:57;13.30;82.90
65582;DHT22;52231;40.090;18.348;2023-04-26T03:03:27;13.30;83.10
65582;DHT22;52231;40.090;18.348;2023-04-26T03:05:56;13.20;83.20
65582;DHT22;52231;40.090;18.348;2023-04-26T03:08:24;13.10;83.40
65582;DHT22;52231;40.090;18.348;2023-04-26T03:10:52;13.10;83.60
65582;DHT22;52231;40.090;18.348;2023-04-26T03:13:24;13.00;83.70
65582;DHT22;52231;40.090;18.348;2023-04-26T03:15:54;13.10;83.80
65582;DHT22;52231;40.090;18.348;2023-04-26T03:18:23;13.00;83.90
65582;DHT22;52231;40.090;18.348;2023-04-26T03:20:51;13.00;83.90
65582;DHT22;52231;40.090;18.348;2023-04-26T03:23:20;13.00;84.00
65582;DHT22;52231;40.090;18.348;2023-04-26T03:25:52;13.00;84.00
65582;DHT22;52231;40.090;18.348;2023-04-26T03:28:21;13.00;84.00
65582;DHT22;52231;40.090;18.348;2023-04-26T03:30:49;13.10;83.90
65582;DHT22;52231;40.090;18.348;2023-04-26T03:33:17;13.00;84.00
65582;DHT22;52231;40.090;18.348;2023-04-26T03:35:45;13.00;84.00
65582;DHT22;52231;40.090;18.348;2023-04-26T03:38:14;12.90;84.10
65582;DHT22;52231;40.090;18.348;2023-04-26T03:40:42;12.90;84.20
65582;DHT22;52231;40.090;18.348;2023-04-26T03:43:10;12.80;84.30
65582;DHT22;52231;40.090;18.348;2023-04-26T03:45:39;12.80;84.40
65582;DHT22;52231;40.090;18.348;2023-04-26T03:48:07;12.70;84.40
65582;DHT22;52231;40.090;18.348;2023-04-26T03:50:35;12.60;84.60
65582;DHT22;52231;40.090;18.348;2023-04-26T03:53:05;12.60;84.60
65582;DHT22;52231;40.090;18.348;2023-04-26T03:55:33;12.60;84.70
65582;DHT22;52231;40.090;18.348;2023-04-26T03:58:01;12.50;84.80
65582;DHT22;52231;40.090;18.348;2023-04-26T04:00:38;12.50;84.90
65582;DHT22;52231;40.090;18.348;2023-04-26T04:03:07;12.50;84.90
65582;DHT22;52231;40.090;18.348;2023-04-26T04:05:35;12.40;85.00
65582;DHT22;52231;40.090;18.348;2023-04-26T04:08:04;12.40;85.00
65582;DHT22;52231;40.090;18.348;2023-04-26T04:10:32;12.50;84.90
65582;DHT22;52231;40.090;18.348;2023-04-26T04:13:00;12.50;84.90
65582;DHT22;52231;40.090;18.348;2023-04-26T04:15:29;12.50;84.90
65582;DHT22;52231;40.090;18.348;2023-04-26T04:17:57;12.50;84.70
65582;DHT22;52231;40.090;18.348;2023-04-26T04:20:26;12.60;84.70
65582;DHT22;52231;40.090;18.348;2023-04-26T04:22:56;12.50;84.60
65582;DHT22;52231;40.090;18.348;2023-04-26T04:25:29;12.60;84.60
65582;DHT22;52231;40.090;18.348;2023-04-26T04:28:01;12.80;84.50
65582;DHT22;52231;40.090;18.348;2023-04-26T04:30:30;13.10;84.00
65582;DHT22;52231;40.090;18.348;2023-04-26T04:33:00;13.30;83.60
65582;DHT22;52231;40.090;18.348;2023-04-26T04:35:30;13.60;82.90
65582;DHT22;52231;40.090;18.348;2023-04-26T04:38:03;13.90;82.00
65582;DHT22;52231;40.090;18.348;2023-04-26T04:40:32;14.10;81.00
65582;DHT22;52231;40.090;18.348;2023-04-26T04:43:00;14.30;80.00
65582;DHT22;52231;40.090;18.348;2023-04-26T04:45:30;14.60;78.90
65582;DHT22;52231;40.090;18.348;2023-04-26T04:48:00;14.90;78.00
65582;DHT22;52231;40.090;18.348;2023-04-26T04:50:28;15.20;77.30
65582;DHT22;52231;40.090;18.348;2023-04-26T04:52:58;15.40;75.90
65582;DHT22;52231;40.090;18.348;2023-04-26T04:55:28;15.60;74.90
65582;DHT22;52231;40.090;18.348;2023-04-26T04:57:57;15.80;73.90
65582;DHT22;52231;40.090;18.348;2023-04-26T05:00:25;16.10;73.10
65582;DHT22;52231;40.090;18.348;2023-04-26T05:03:03;16.50;72.00
65582;DHT22;52231;40.090;18.348;2023-04-26T05:05:31;16.70;71.00
65582;DHT22;52231;40.090;18.348;2023-04-26T05:08:00;16.90;70.20
65582;DHT22;52231;40.090;18.348;2023-04-26T05:10:28;17.20;69.20
65582;DHT22;52231;40.090;18.348;2023-04-26T05:12:57;17.30;68.00
65582;DHT22;52231;40.090;18.348;2023-04-26T05:15:25;17.50;67.40
65582;DHT22;52231;40.090;18.348;2023-04-26T05:17:53;17.60;66.00
65582;DHT22;52231;40.090;18.348;2023-04-26T05:20:24;17.70;66.10
65582;DHT22;52231;40.090;18.348;2023-04-26T05:22:53;17.60;65.60
65582;DHT22;52231;40.090;18.348;2023-04-26T05:25:22;17.80;65.00
65582;DHT22;52231;40.090;18.348;2023-04-26T05:27:58;17.80;65.30
65582;DHT22;52231;40.090;18.348;2023-04-26T05:30:41;17.90;64.60
65582;DHT22;52231;40.090;18.348;2023-04-26T05:33:19;18.00;63.80
65582;DHT22;52231;40.090;18.348;2023-04-26T05:35:55;18.20;62.80
65582;DHT22;52231;40.090;18.348;2023-04-26T05:38:25;18.40;61.80
65582;DHT22;52231;40.090;18.348;2023-04-26T05:40:53;18.50;60.40
65582;DHT22;52231;40.090;18.348;2023-04-26T05:43:22;18.80;60.30
65582;DHT22;52231;40.090;18.348;2023-04-26T05:45:52;18.90;59.00
65582;DHT22;52231;40.090;18.348;2023-04-26T05:48:22;19.10;58.20
65582;DHT22;52231;40.090;18.348;2023-04-26T05:50:51;19.10;57.40
65582;DHT22;52231;40.090;18.348;2023-04-26T05:53:19;19.30;57.30
65582;DHT22;52231;40.090;18.348;2023-04-26T05:55:47;19.40;56.40
65582;DHT22;52231;40.090;18.348;2023-04-26T05:58:15;19.50;56.50
65582;DHT22;52231;40.090;18.348;2023-04-26T06:00:45;19.50;55.50
65582;DHT22;52231;40.090;18.348;2023-04-26T06:03:14;19.60;55.20
65582;DHT22;52231;40.090;18.348;2023-04-26T06:05:42;19.60;54.70
65582;DHT22;52231;40.090;18.348;2023-04-26T06:08:11;19.80;54.70
65582;DHT22;52231;40.090;18.348;2023-04-26T06:10:39;20.00;53.30
65582;DHT22;52231;40.090;18.348;2023-04-26T06:13:07;20.10;52.80
65582;DHT22;52231;40.090;18.348;2023-04-26T06:15:37;19.90;51.80
65582;DHT22;52231;40.090;18.348;2023-04-26T06:18:05;19.80;52.30
65582;DHT22;52231;40.090;18.348;2023-04-26T06:20:33;19.80;51.60
65582;DHT22;52231;40.090;18.348;2023-04-26T06:23:06;19.90;52.70
65582;DHT22;52231;40.090;18.348;2023-04-26T06:25:34;20.10;51.60
65582;DHT22;52231;40.090;18.348;2023-04-26T06:28:04;20.10;51.10
65582;DHT22;52231;40.090;18.348;2023-04-26T06:30:32;20.20;50.80
65582;DHT22;52231;40.090;18.348;2023-04-26T06:33:00;20.60;50.50
65582;DHT22;52231;40.090;18.348;2023-04-26T06:35:30;20.40;49.40
65582;DHT22;52231;40.090;18.348;2023-04-26T06:37:59;20.10;51.10
65582;DHT22;52231;40.090;18.348;2023-04-26T06:40:27;20.10;50.50
65582;DHT22;52231;40.090;18.348;2023-04-26T06:42:56;20.10;50.30
65582;DHT22;52231;40.090;18.348;2023-04-26T06:45:37;20.20;49.70
65582;DHT22;52231;40.090;18.348;2023-04-26T06:48:05;20.10;49.50
65582;DHT22;52231;40.090;18.348;2023-04-26T06:50:38;19.80;49.90
65582;DHT22;52231;40.090;18.348;2023-04-26T06:53:08;19.80;50.20
65582;DHT22;52231;40.090;18.348;2023-04-26T06:55:39;20.10;50.00
65582;DHT22;52231;40.090;18.348;2023-04-26T06:58:12;20.10;48.80
65582;DHT22;52231;40.090;18.348;2023-04-26T07:00:40;20.30;48.60
65582;DHT22;52231;40.090;18.348;2023-04-26T07:03:08;20.60;48.90
65582;DHT22;52231;40.090;18.348;2023-04-26T07:05:38;20.90;48.30
65582;DHT22;52231;40.090;18.348;2023-04-26T07:08:07;21.10;47.90
65582;DHT22;52231;40.090;18.348;2023-04-26T07:10:35;20.90;47.00
65582;DHT22;52231;40.090;18.348;2023-04-26T07:13:04;21.20;46.50
65582;DHT22;52231;40.090;18.348;2023-04-26T07:15:33;20.90;46.50
65582;DHT22;52231;40.090;18.348;2023-04-26T07:18:03;20.80;47.40
65582;DHT22;52231;40.090;18.348;2023-04-26T07:20:31;20.80;47.20
65582;DHT22;52231;40.090;18.348;2023-04-26T07:22:59;20.60;47.30
65582;DHT22;52231;40.090;18.348;2023-04-26T07:25:28;20.90;47.50
65582;DHT22;52231;40.090;18.348;2023-04-26T07:27:56;21.10;45.90
65582;DHT22;52231;40.090;18.348;2023-04-26T07:30:24;21.50;46.10
65582;DHT22;52231;40.090;18.348;2023-04-26T07:32:52;21.90;44.70
65582;DHT22;52231;40.090;18.348;2023-04-26T07:35:20;21.80;44.30
65582;DHT22;52231;40.090;18.348;2023-04-26T07:37:49;22.30;44.00
65582;DHT22;52231;40.090;18.348;2023-04-26T07:40:17;22.50;42.90
65582;DHT22;52231;40.090;18.348;2023-04-26T07:42:46;21.80;44.50
65582;DHT22;52231;40.090;18.348;2023-04-26T07:45:15;21.70;44.20
65582;DHT22;52231;40.090;18.348;2023-04-26T07:47:43;21.20;45.70
65582;DHT22;52231;40.090;18.348;2023-04-26T07:50:12;21.40;45.10
65582;DHT22;52231;40.090;18.348;2023-04-26T07:52:40;21.60;43.40
65582;DHT22;52231;40.090;18.348;2023-04-26T07:55:10;21.90;43.30
65582;DHT22;52231;40.090;18.348;2023-04-26T07:57:38;22.20;42.60
65582;DHT22;52231;40.090;18.348;2023-04-26T08:00:07;22.30;41.40
65582;DHT22;52231;40.090;18.348;2023-04-26T08:02:38;22.10;42.10
65582;DHT22;52231;40.090;18.348;2023-04-26T08:05:11;21.80;43.20
65582;DHT22;52231;40.090;18.348;2023-04-26T08:07:40;21.90;43.20
65582;DHT22;52231;40.090;18.348;2023-04-26T08:10:09;22.10;42.70
65582;DHT22;52231;40.090;18.348;2023-04-26T08:12:38;22.30;42.30
65582;DHT22;52231;40.090;18.348;2023-04-26T08:15:06;22.50;41.50
65582;DHT22;52231;40.090;18.348;2023-04-26T08:17:35;22.50;41.70
65582;DHT22;52231;40.090;18.348;2023-04-26T08:20:03;22.80;42.10
65582;DHT22;52231;40.090;18.348;2023-04-26T08:22:32;22.80;41.80
65582;DHT22;52231;40.090;18.348;2023-04-26T08:25:00;23.10;41.50
65582;DHT22;52231;40.090;18.348;2023-04-26T08:27:29;23.30;40.80
65582;DHT22;52231;40.090;18.348;2023-04-26T08:29:58;23.10;40.50
65582;DHT22;52231;40.090;18.348;2023-04-26T08:32:27;22.90;40.30
65582;DHT22;52231;40.090;18.348;2023-04-26T08:34:55;22.60;41.40
65582;DHT22;52231;40.090;18.348;2023-04-26T08:37:23;22.50;41.90
65582;DHT22;52231;40.090;18.348;2023-04-26T08:39:51;22.60;42.00
65582;DHT22;52231;40.090;18.348;2023-04-26T08:42:20;22.50;41.80
65582;DHT22;52231;40.090;18.348;2023-04-26T08:44:52;21.80;43.40
65582;DHT22;52231;40.090;18.348;2023-04-26T08:47:27;21.30;44.20
65582;DHT22;52231;40.090;18.348;2023-04-26T08:49:59;21.80;43.00
65582;DHT22;52231;40.090;18.348;2023-04-26T08:52:31;22.00;42.10
65582;DHT22;52231;40.090;18.348;2023-04-26T08:54:59;22.30;42.10
65582;DHT22;52231;40.090;18.348;2023-04-26T08:57:31;22.40;41.30
65582;DHT22;52231;40.090;18.348;2023-04-26T09:00:03;22.40;42.40
65582;DHT22;52231;40.090;18.348;2023-04-26T09:02:51;22.20;41.80
65582;DHT22;52231;40.090;18.348;2023-04-26T09:05:20;22.20;42.60
65582;DHT22;52231;40.090;18.348;2023-04-26T09:07:58;22.30;42.30
65582;DHT22;52231;40.090;18.348;2023-04-26T09:10:27;21.40;44.30
65582;DHT22;52231;40.090;18.348;2023-04-26T09:12:57;20.60;46.10
65582;DHT22;52231;40.090;18.348;2023-04-26T09:15:27;20.00;47.50
65582;DHT22;52231;40.090;18.348;2023-04-26T09:17:55;19.60;48.50
65582;DHT22;52231;40.090;18.348;2023-04-26T09:20:27;19.30;50.00
65582;DHT22;52231;40.090;18.348;2023-04-26T09:23:07;19.00;51.20
65582;DHT22;52231;40.090;18.348;2023-04-26T09:25:37;19.20;51.70
65582;DHT22;52231;40.090;18.348;2023-04-26T09:28:21;19.80;50.40
65582;DHT22;52231;40.090;18.348;2023-04-26T09:30:50;20.80;49.10
65582;DHT22;52231;40.090;18.348;2023-04-26T09:33:21;21.40;47.20
65582;DHT22;52231;40.090;18.348;2023-04-26T09:35:49;21.40;46.40
65582;DHT22;52231;40.090;18.348;2023-04-26T09:38:18;21.60;45.90
65582;DHT22;52231;40.090;18.348;2023-04-26T09:40:48;22.30;44.30
65582;DHT22;52231;40.090;18.348;2023-04-26T09:43:17;23.00;43.80
65582;DHT22;52231;40.090;18.348;2023-04-26T09:45:52;23.00;44.90
65582;DHT22;52231;40.090;18.348;2023-04-26T09:48:26;22.60;45.70
65582;DHT22;52231;40.090;18.348;2023-04-26T09:50:59;22.20;46.30
65582;DHT22;52231;40.090;18.348;2023-04-26T09:53:39;21.80;46.00
65582;DHT22;52231;40.090;18.348;2023-04-26T09:56:17;21.30;47.90
65582;DHT22;52231;40.090;18.348;2023-04-26T10:01:15;21.40;47.10
65582;DHT22;52231;40.090;18.348;2023-04-26T10:03:45;22.30;45.00
65582;DHT22;52231;40.090;18.348;2023-04-26T10:06:14;22.90;43.90
65582;DHT22;52231;40.090;18.348;2023-04-26T10:08:44;23.50;43.50
65582;DHT22;52231;40.090;18.348;2023-04-26T10:11:12;23.80;43.20
65582;DHT22;52231;40.090;18.348;2023-04-26T10:13:41;22.90;43.80
65582;DHT22;52231;40.090;18.348;2023-04-26T10:16:09;21.90;45.90
65582;DHT22;52231;40.090;18.348;2023-04-26T10:18:38;21.30;47.40
65582;DHT22;52231;40.090;18.348;2023-04-26T10:21:10;21.50;48.20
65582;DHT22;52231;40.090;18.348;2023-04-26T10:23:40;21.40;48.60
65582;DHT22;52231;40.090;18.348;2023-04-26T10:26:46;20.60;51.60
65582;DHT22;52231;40.090;18.348;2023-04-26T10:29:20;19.70;52.90
65582;DHT22;52231;40.090;18.348;2023-04-26T10:34:31;19.30;52.50
65582;DHT22;52231;40.090;18.348;2023-04-26T10:37:12;19.70;52.00
65582;DHT22;52231;40.090;18.348;2023-04-26T10:39:42;20.50;51.20
65582;DHT22;52231;40.090;18.348;2023-04-26T10:42:21;20.30;48.90
65582;DHT22;52231;40.090;18.348;2023-04-26T10:44:58;19.80;49.30
65582;DHT22;52231;40.090;18.348;2023-04-26T10:47:27;19.50;50.10
65582;DHT22;52231;40.090;18.348;2023-04-26T10:50:07;19.60;50.00
65582;DHT22;52231;40.090;18.348;2023-04-26T10:53:03;20.30;48.20
65582;DHT22;52231;40.090;18.348;2023-04-26T10:55:40;21.20;45.90
65582;DHT22;52231;40.090;18.348;2023-04-26T10:58:29;21.90;44.20
65582;DHT22;52231;40.090;18.348;2023-04-26T11:04:06;22.80;41.90
65582;DHT22;52231;40.090;18.348;2023-04-26T11:06:54;23.60;41.70
65582;DHT22;52231;40.090;18.348;2023-04-26T11:09:37;23.80;39.80
65582;DHT22;52231;40.090;18.348;2023-04-26T11:12:11;24.00;41.50
65582;DHT22;52231;40.090;18.348;2023-04-26T11:14:44;23.50;42.20
65582;DHT22;52231;40.090;18.348;2023-04-26T11:17:15;22.80;43.60
65582;DHT22;52231;40.090;18.348;2023-04-26T11:19:45;22.60;45.00
65582;DHT22;52231;40.090;18.348;2023-04-26T11:22:14;23.10;43.10
65582;DHT22;52231;40.090;18.348;2023-04-26T11:24:42;22.90;43.20
65582;DHT22;52231;40.090;18.348;2023-04-26T11:27:10;22.20;44.10
65582;DHT22;52231;40.090;18.348;2023-04-26T11:29:38;21.80;45.10
65582;DHT22;52231;40.090;18.348;2023-04-26T11:32:07;22.40;45.90
65582;DHT22;52231;40.090;18.348;2023-04-26T11:34:37;22.40;43.60
65582;DHT22;52231;40.090;18.348;2023-04-26T11:37:06;22.00;46.40
65582;DHT22;52231;40.090;18.348;2023-04-26T11:39:35;22.50;44.70
65582;DHT22;52231;40.090;18.348;2023-04-26T11:42:08;22.60;44.20
65582;DHT22;52231;40.090;18.348;2023-04-26T11:44:37;22.10;44.50
65582;DHT22;52231;40.090;18.348;2023-04-26T11:47:06;21.80;44.50
65582;DHT22;52231;40.090;18.348;2023-04-26T11:49:36;22.40;43.00
65582;DHT22;52231;40.090;18.348;2023-04-26T11:52:04;22.00;43.60
65582;DHT22;52231;40.090;18.348;2023-04-26T11:54:34;22.30;44.80
65582;DHT22;52231;40.090;18.348;2023-04-26T11:57:13;22.60;43.90
65582;DHT22;52231;40.090;18.348;2023-04-26T11:59:44;22.60;43.90
65582;DHT22;52231;40.090;18.348;2023-04-26T12:02:12;23.30;44.70
65582;DHT22;52231;40.090;18.348;2023-04-26T12:04:40;23.00;43.50
65582;DHT22;52231;40.090;18.348;2023-04-26T12:07:09;22.40;44.00
65582;DHT22;52231;40.090;18.348;2023-04-26T12:09:39;22.60;44.60
65582;DHT22;52231;40.090;18.348;2023-04-26T12:12:10;23.30;43.50
65582;DHT22;52231;40.090;18.348;2023-04-26T12:14:40;23.50;43.90
65582;DHT22;52231;40.090;18.348;2023-04-26T12:17:08;23.80;44.40
65582;DHT22;52231;40.090;18.348;2023-04-26T12:19:38;23.90;42.80
65582;DHT22;52231;40.090;18.348;2023-04-26T12:22:08;23.80;43.50
65582;DHT22;52231;40.090;18.348;2023-04-26T12:24:36;23.60;44.00
65582;DHT22;52231;40.090;18.348;2023-04-26T12:27:06;23.10;45.40
65582;DHT22;52231;40.090;18.348;2023-04-26T12:29:34;22.80;46.20
65582;DHT22;52231;40.090;18.348;2023-04-26T12:32:02;23.10;45.60
65582;DHT22;52231;40.090;18.348;2023-04-26T12:34:31;22.80;44.60
65582;DHT22;52231;40.090;18.348;2023-04-26T12:36:59;22.30;47.10
65582;DHT22;52231;40.090;18.348;2023-04-26T12:39:27;22.20;47.40
65582;DHT22;52231;40.090;18.348;2023-04-26T12:41:55;21.50;48.90
65582;DHT22;52231;40.090;18.348;2023-04-26T12:44:23;21.30;49.00
65582;DHT22;52231;40.090;18.348;2023-04-26T12:46:53;21.00;49.00
65582;DHT22;52231;40.090;18.348;2023-04-26T12:49:21;20.60;50.00
65582;DHT22;52231;40.090;18.348;2023-04-26T12:51:49;20.80;48.90
65582;DHT22;52231;40.090;18.348;2023-04-26T12:54:18;20.90;48.90
65582;DHT22;52231;40.090;18.348;2023-04-26T12:56:49;21.40;47.90
65582;DHT22;52231;40.090;18.348;2023-04-26T12:59:17;22.00;47.00
65582;DHT22;52231;40.090;18.348;2023-04-26T13:01:46;21.90;45.00
65582;DHT22;52231;40.090;18.348;2023-04-26T13:04:14;21.90;45.80
65582;DHT22;52231;40.090;18.348;2023-04-26T13:06:42;22.10;46.30
65582;DHT22;52231;40.090;18.348;2023-04-26T13:09:11;22.30;45.20
65582;DHT22;52231;40.090;18.348;2023-04-26T13:11:40;22.20;45.10
65582;DHT22;52231;40.090;18.348;2023-04-26T13:14:10;21.90;45.30
65582;DHT22;52231;40.090;18.348;2023-04-26T13:16:39;21.40;44.50
65582;DHT22;52231;40.090;18.348;2023-04-26T13:19:10;20.80;44.60
65582;DHT22;52231;40.090;18.348;2023-04-26T13:21:38;20.50;47.00
65582;DHT22;52231;40.090;18.348;2023-04-26T13:24:07;20.50;47.70
65582;DHT22;52231;40.090;18.348;2023-04-26T13:26:35;20.50;49.00
65582;DHT22;52231;40.090;18.348;2023-04-26T13:29:04;20.90;48.80
65582;DHT22;52231;40.090;18.348;2023-04-26T13:31:33;21.00;47.40
65582;DHT22;52231;40.090;18.348;2023-04-26T13:34:02;21.10;46.30
65582;DHT22;52231;40.090;18.348;2023-04-26T13:36:30;20.80;46.60
65582;DHT22;52231;40.090;18.348;2023-04-26T13:38:59;20.40;45.50
65582;DHT22;52231;40.090;18.348;2023-04-26T13:41:27;20.30;46.30
65582;DHT22;52231;40.090;18.348;2023-04-26T13:44:03;19.90;44.60
65582;DHT22;52231;40.090;18.348;2023-04-26T13:46:31;19.40;45.20
65582;DHT22;52231;40.090;18.348;2023-04-26T13:49:00;19.30;47.70
65582;DHT22;52231;40.090;18.348;2023-04-26T13:51:28;19.50;48.10
65582;DHT22;52231;40.090;18.348;2023-04-26T13:53:57;19.50;46.90
65582;DHT22;52231;40.090;18.348;2023-04-26T13:56:25;19.40;48.50
65582;DHT22;52231;40.090;18.348;2023-04-26T13:58:54;19.40;50.00
65582;DHT22;52231;40.090;18.348;2023-04-26T14:01:28;19.40;47.70
65582;DHT22;52231;40.090;18.348;2023-04-26T14:03:56;19.30;49.90
65582;DHT22;52231;40.090;18.348;2023-04-26T14:06:29;19.50;51.50
65582;DHT22;52231;40.090;18.348;2023-04-26T14:08:59;19.70;48.10
65582;DHT22;52231;40.090;18.348;2023-04-26T14:11:28;19.90;48.00
65582;DHT22;52231;40.090;18.348;2023-04-26T14:13:58;20.00;47.10
65582;DHT22;52231;40.090;18.348;2023-04-26T14:16:26;19.80;44.70
65582;DHT22;52231;40.090;18.348;2023-04-26T14:18:54;19.60;45.30
65582;DHT22;52231;40.090;18.348;2023-04-26T14:21:23;19.50;46.00
65582;DHT22;52231;40.090;18.348;2023-04-26T14:23:51;19.40;46.70
65582;DHT22;52231;40.090;18.348;2023-04-26T14:26:19;19.50;48.50
65582;DHT22;52231;40.090;18.348;2023-04-26T14:28:47;19.40;48.60
65582;DHT22;52231;40.090;18.348;2023-04-26T14:31:16;19.30;46.20
65582;DHT22;52231;40.090;18.348;2023-04-26T14:33:45;19.10;47.50
65582;DHT22;52231;40.090;18.348;2023-04-26T14:36:13;19.10;47.20
65582;DHT22;52231;40.090;18.348;2023-04-26T14:38:44;19.10;46.70
65582;DHT22;52231;40.090;18.348;2023-04-26T14:41:18;19.10;49.00
65582;DHT22;52231;40.090;18.348;2023-04-26T14:43:47;19.40;49.50
65582;DHT22;52231;40.090;18.348;2023-04-26T14:46:15;19.50;46.90
65582;DHT22;52231;40.090;18.348;2023-04-26T14:48:43;19.60;46.40
65582;DHT22;52231;40.090;18.348;2023-04-26T14:51:11;19.50;46.70
65582;DHT22;52231;40.090;18.348;2023-04-26T14:53:39;19.30;47.00
65582;DHT22;52231;40.090;18.348;2023-04-26T14:56:08;19.20;48.00
65582;DHT22;52231;40.090;18.348;2023-04-26T14:58:36;19.20;47.10
65582;DHT22;52231;40.090;18.348;2023-04-26T15:01:04;19.00;47.50
65582;DHT22;52231;40.090;18.348;2023-04-26T15:03:32;18.90;47.60
65582;DHT22;52231;40.090;18.348;2023-04-26T15:06:00;18.80;49.00
65582;DHT22;52231;40.090;18.348;2023-04-26T15:08:32;18.70;49.60
65582;DHT22;52231;40.090;18.348;2023-04-26T15:11:00;18.60;49.30
65582;DHT22;52231;40.090;18.348;2023-04-26T15:13:28;18.60;49.00
65582;DHT22;52231;40.090;18.348;2023-04-26T15:15:56;18.50;49.20
65582;DHT22;52231;40.090;18.348;2023-04-26T15:18:24;18.40;47.70
65582;DHT22;52231;40.090;18.348;2023-04-26T15:20:52;18.30;46.30
65582;DHT22;52231;40.090;18.348;2023-04-26T15:23:20;18.20;44.80
65582;DHT22;52231;40.090;18.348;2023-04-26T15:25:48;18.10;46.20
65582;DHT22;52231;40.090;18.348;2023-04-26T15:28:17;18.00;47.10
65582;DHT22;52231;40.090;18.348;2023-04-26T15:30:45;17.90;46.70
65582;DHT22;52231;40.090;18.348;2023-04-26T15:33:15;17.80;46.60
65582;DHT22;52231;40.090;18.348;2023-04-26T15:35:43;17.80;47.50
65582;DHT22;52231;40.090;18.348;2023-04-26T15:38:12;17.80;48.20